Okoboji, Iowa
Current Conditions -  °F | °C
As of 5:53 AM on Friday 24 Oct 2014 (Local Time) from KSPW Reporting Station
Clear Clear  
Wind Chill: 53°   Ceiling: Unl
Heat Index: 53°   Visibility: 10mi
Dew Point: 49°   Wind: 9mph
Humidity: 86%   Direction: 180°S
Pressure: 29.87"   Gusts: NA
Location:  43.39°N, 95.15°W
Report Text: KSPW 241053Z AUTO 18008KT 10SM CLR 12/09 A2987 RMK AO2 SLP116 T01170094 TSNO
Loading
Personal Weather Stations






























Interactive Weather Map
Tropical Storm Tracking
New forecast layout! Learn more

10-Day Weather Forecast

Advertisements
Track Severe Weather on mobile